createdAt,value
2023-05-23T00:03:59.650Z,13.60
2023-05-23T00:09:01.840Z,14.23
2023-05-23T00:14:03.580Z,14.90
2023-05-23T00:19:05.390Z,15.63
2023-05-23T00:24:07.590Z,14.50
2023-05-23T00:29:15.636Z,14.27
2023-05-23T00:34:17.952Z,13.60
2023-05-23T00:39:20.926Z,15.27
2023-05-23T00:44:23.252Z,14.47
2023-05-23T00:49:27.992Z,14.40
2023-05-23T00:54:33.441Z,14.53
2023-05-23T00:59:37.265Z,14.60
2023-05-23T01:04:39.435Z,13.87
2023-05-23T01:09:41.168Z,15.40
2023-05-23T01:14:49.667Z,15.00
2023-05-23T01:20:17.889Z,15.03
2023-05-23T01:25:36.786Z,15.13
2023-05-23T01:30:41.190Z,14.57
2023-05-23T01:35:43.973Z,14.00
2023-05-23T01:40:45.728Z,15.13
2023-05-23T01:45:48.981Z,15.07
2023-05-23T01:50:51.213Z,14.73
2023-05-23T01:55:53.277Z,15.03
2023-05-23T02:00:54.988Z,14.93
2023-05-23T02:05:56.682Z,15.20
2023-05-23T02:10:58.391Z,14.30
2023-05-23T02:16:00.524Z,15.33
2023-05-23T02:21:02.431Z,15.67
2023-05-23T02:26:04.340Z,14.33
2023-05-23T02:31:06.644Z,14.73
2023-05-23T02:36:08.505Z,14.40
2023-05-23T02:41:11.590Z,13.93
2023-05-23T02:46:13.801Z,15.23
2023-05-23T02:51:15.693Z,14.43
2023-05-23T02:56:17.486Z,14.43
2023-05-23T03:01:19.981Z,15.90
2023-05-23T03:06:22.358Z,15.83
2023-05-23T03:11:24.302Z,15.90
2023-05-23T03:16:26.398Z,16.27
2023-05-23T03:21:28.316Z,16.27
2023-05-23T03:26:30.783Z,16.40
2023-05-23T03:31:32.726Z,16.10
2023-05-23T03:36:35.986Z,16.87
2023-05-23T03:41:37.901Z,16.63
2023-05-23T03:46:40.259Z,16.30
2023-05-23T03:51:42.300Z,16.87
2023-05-23T03:56:44.525Z,17.20
2023-05-23T04:01:46.485Z,16.93
2023-05-23T04:06:48.434Z,16.17
2023-05-23T04:11:50.539Z,17.50
2023-05-23T04:16:52.602Z,17.37
2023-05-23T04:21:54.398Z,17.57
2023-05-23T04:26:56.384Z,17.60
2023-05-23T04:31:58.788Z,18.10
2023-05-23T04:37:04.173Z,18.17
2023-05-23T04:42:07.384Z,18.43
2023-05-23T04:47:09.726Z,18.10
2023-05-23T04:52:11.569Z,17.43
2023-05-23T04:57:13.525Z,18.17
2023-05-23T05:02:15.317Z,18.37
2023-05-23T05:07:17.935Z,18.93
2023-05-23T05:12:19.689Z,18.57
2023-05-23T05:17:21.468Z,19.73
2023-05-23T05:22:23.526Z,19.73
2023-05-23T05:27:27.145Z,20.17
2023-05-23T05:32:31.381Z,22.87
2023-05-23T05:37:33.484Z,28.20
2023-05-23T05:42:35.452Z,28.83
2023-05-23T05:47:38.869Z,30.10
2023-05-23T05:52:41.353Z,28.73
2023-05-23T05:57:43.194Z,29.67
2023-05-23T06:02:48.838Z,29.20
2023-05-23T06:07:51.295Z,30.80
2023-05-23T06:12:53.096Z,30.57
2023-05-23T06:17:55.104Z,32.83
2023-05-23T06:22:57.555Z,31.97
2023-05-23T06:27:59.651Z,31.83
2023-05-23T06:33:01.540Z,32.57
2023-05-23T06:38:03.428Z,32.07
2023-05-23T06:43:05.212Z,32.10
2023-05-23T06:48:07.087Z,30.83
2023-05-23T06:53:11.644Z,32.43
2023-05-23T06:58:13.479Z,32.77
2023-05-23T07:03:15.463Z,33.33
2023-05-23T07:08:17.255Z,34.07
2023-05-23T07:13:18.991Z,34.77
2023-05-23T07:18:20.860Z,33.53
2023-05-23T07:23:26.992Z,35.83
2023-05-23T07:28:28.931Z,36.93
2023-05-23T07:33:30.809Z,35.13
2023-05-23T07:38:32.574Z,35.97
2023-05-23T07:43:34.340Z,35.30
2023-05-23T07:48:36.141Z,34.87
2023-05-23T07:53:40.243Z,37.03
2023-05-23T07:58:42.147Z,36.13
2023-05-23T08:03:43.996Z,34.20
2023-05-23T08:08:46.116Z,35.87
2023-05-23T08:13:47.890Z,36.17
2023-05-23T08:18:49.686Z,33.77
2023-05-23T08:23:51.633Z,33.67
2023-05-23T08:28:53.721Z,34.80
2023-05-23T08:33:55.610Z,36.50
2023-05-23T08:38:57.421Z,37.73
2023-05-23T08:43:59.260Z,38.00
2023-05-23T08:49:01.321Z,36.83
2023-05-23T08:54:04.701Z,37.83
2023-05-23T08:59:08.491Z,38.87
2023-05-23T09:04:11.813Z,36.90
2023-05-23T09:09:13.592Z,37.33
2023-05-23T09:14:15.555Z,37.90
2023-05-23T09:19:19.443Z,37.87
2023-05-23T09:24:21.854Z,37.77
2023-05-23T09:29:23.961Z,36.30
2023-05-23T09:34:26.741Z,36.47
2023-05-23T09:39:28.540Z,36.37
2023-05-23T09:44:30.359Z,34.90
2023-05-23T09:49:32.130Z,33.47
2023-05-23T09:54:33.967Z,34.07
2023-05-23T09:59:41.595Z,34.80
2023-05-23T10:04:43.692Z,34.03
2023-05-23T10:09:56.817Z,32.43
2023-05-23T10:15:05.145Z,32.93
2023-05-23T10:20:16.819Z,30.17
2023-05-23T10:25:19.138Z,27.80
2023-05-23T10:30:21.776Z,27.37
2023-05-23T10:35:37.904Z,27.40
2023-05-23T10:41:03.861Z,26.80
2023-05-23T10:46:08.837Z,26.33
2023-05-23T10:51:15.291Z,25.23
2023-05-23T10:56:25.987Z,24.93
2023-05-23T11:01:27.965Z,25.50
2023-05-23T11:06:45.061Z,24.60
2023-05-23T11:12:02.916Z,22.47
2023-05-23T11:17:13.561Z,22.13
2023-05-23T11:22:15.980Z,20.60
2023-05-23T11:27:36.281Z,19.50
2023-05-23T11:32:38.274Z,19.70
2023-05-23T11:37:40.757Z,20.00
2023-05-23T11:42:43.583Z,21.03
2023-05-23T11:47:45.637Z,21.53
2023-05-23T11:52:51.676Z,23.03
2023-05-23T11:57:56.624Z,21.27
2023-05-23T12:02:58.535Z,20.27
2023-05-23T12:08:00.694Z,19.63
2023-05-23T12:13:02.652Z,20.70
2023-05-23T12:18:05.352Z,18.47
2023-05-23T12:23:07.331Z,17.43
2023-05-23T12:28:13.970Z,19.37
2023-05-23T12:33:18.266Z,19.83
2023-05-23T12:38:23.686Z,18.87
2023-05-23T12:43:25.546Z,17.17
2023-05-23T12:48:27.317Z,16.77
2023-05-23T12:53:29.704Z,16.00
2023-05-23T12:58:32.338Z,15.40
2023-05-23T13:03:34.161Z,12.70
2023-05-23T13:08:35.956Z,12.67
2023-05-23T13:13:37.821Z,13.03
2023-05-23T13:18:39.600Z,12.87
2023-05-23T13:23:41.733Z,12.27
2023-05-23T13:28:43.553Z,11.03
2023-05-23T13:33:45.317Z,10.93
2023-05-23T13:38:47.297Z,12.30
2023-05-23T13:43:49.227Z,11.50
2023-05-23T13:48:51.052Z,9.93
2023-05-23T13:53:52.850Z,10.13
2023-05-23T13:58:54.587Z,11.20
2023-05-23T14:03:56.608Z,9.93
2023-05-23T14:09:01.463Z,10.77
2023-05-23T14:14:03.271Z,10.33
2023-05-23T14:19:05.090Z,9.30
2023-05-23T14:24:07.321Z,10.20
2023-05-23T14:29:09.170Z,9.10
2023-05-23T14:34:11.482Z,9.43
2023-05-23T14:39:13.432Z,9.43
2023-05-23T14:44:15.307Z,9.90
2023-05-23T14:49:19.911Z,9.60
2023-05-23T14:54:22.074Z,9.23
2023-05-23T14:59:23.907Z,9.13
2023-05-23T15:04:25.760Z,9.00
2023-05-23T15:09:28.382Z,8.87
2023-05-23T15:14:32.163Z,7.63
2023-05-23T15:19:39.313Z,8.00
2023-05-23T15:24:41.194Z,7.70
2023-05-23T15:29:42.998Z,7.10
2023-05-23T15:34:44.762Z,7.30
2023-05-23T15:39:47.154Z,6.83
2023-05-23T15:44:48.990Z,7.27
2023-05-23T15:49:50.805Z,7.63
2023-05-23T15:54:52.610Z,6.90
2023-05-23T15:59:54.358Z,7.20
2023-05-23T16:04:57.651Z,6.97
2023-05-23T16:09:59.512Z,6.87
2023-05-23T16:15:01.310Z,6.60
2023-05-23T16:20:04.367Z,6.73
2023-05-23T16:25:07.967Z,6.50
2023-05-23T16:30:10.113Z,6.73
2023-05-23T16:35:12.120Z,6.13
2023-05-23T16:40:13.953Z,6.00
2023-05-23T16:45:15.935Z,6.07
2023-05-23T16:50:17.826Z,5.60
2023-05-23T16:55:19.617Z,5.70
2023-05-23T17:00:21.587Z,5.97
2023-05-23T17:05:23.395Z,5.50
2023-05-23T17:10:25.202Z,5.53
2023-05-23T17:15:26.972Z,5.23
2023-05-23T17:20:28.890Z,5.60
2023-05-23T17:25:31.263Z,4.97
2023-05-23T17:30:33.061Z,4.97
2023-05-23T17:35:34.828Z,5.10
2023-05-23T17:40:39.024Z,4.90
2023-05-23T17:45:41.521Z,4.87
2023-05-23T17:50:44.574Z,4.57
2023-05-23T17:55:47.717Z,4.40
2023-05-23T18:00:50.325Z,4.90
2023-05-23T18:05:52.167Z,4.60
2023-05-23T18:10:53.925Z,4.93
2023-05-23T18:15:55.704Z,5.30
2023-05-23T18:20:57.530Z,5.37
2023-05-23T18:25:59.451Z,5.33
2023-05-23T18:31:02.018Z,5.37
2023-05-23T18:36:04.081Z,5.37
2023-05-23T18:41:06.089Z,5.60
2023-05-23T18:46:07.893Z,6.17
2023-05-23T18:51:09.694Z,5.50
2023-05-23T18:56:11.495Z,5.87
2023-05-23T19:01:13.388Z,5.77
2023-05-23T19:06:15.280Z,5.97
2023-05-23T19:11:17.073Z,6.20
2023-05-23T19:16:20.485Z,6.13
2023-05-23T19:21:22.396Z,6.00
2023-05-23T19:26:24.167Z,6.30
2023-05-23T19:31:26.062Z,6.70
2023-05-23T19:36:27.829Z,6.50
2023-05-23T19:41:29.611Z,7.30
2023-05-23T19:46:31.413Z,7.23
2023-05-23T19:51:33.303Z,7.23
2023-05-23T19:56:36.185Z,7.63
2023-05-23T20:01:38.000Z,8.17
2023-05-23T20:06:40.240Z,8.60
2023-05-23T20:11:42.898Z,7.57
2023-05-23T20:16:44.665Z,7.93
2023-05-23T20:21:46.423Z,8.80
2023-05-23T20:26:48.300Z,8.57
2023-05-23T20:31:50.188Z,8.67
2023-05-23T20:36:52.004Z,9.47
2023-05-23T20:41:54.773Z,9.93
2023-05-23T20:46:57.146Z,9.83
2023-05-23T20:52:02.628Z,10.33
2023-05-23T20:57:07.737Z,10.57
2023-05-23T21:02:09.594Z,10.67
2023-05-23T21:07:13.358Z,10.30
2023-05-23T21:12:15.183Z,10.27
2023-05-23T21:17:19.645Z,11.23
2023-05-23T21:22:21.542Z,10.60
2023-05-23T21:27:23.395Z,10.87
2023-05-23T21:32:25.264Z,10.13
2023-05-23T21:37:27.454Z,10.40
2023-05-23T21:42:32.835Z,10.30
2023-05-23T21:47:34.679Z,10.47
2023-05-23T21:52:36.505Z,10.60
2023-05-23T21:57:38.448Z,10.47
2023-05-23T22:02:41.049Z,11.87
2023-05-23T22:07:44.096Z,11.43
2023-05-23T22:12:48.442Z,12.13
2023-05-23T22:17:52.621Z,12.43
2023-05-23T22:22:54.701Z,12.20
2023-05-23T22:28:00.338Z,12.00
2023-05-23T22:33:02.544Z,13.10
2023-05-23T22:38:04.355Z,14.00
2023-05-23T22:43:06.614Z,14.83
2023-05-23T22:48:11.856Z,15.20
2023-05-23T22:53:16.630Z,15.53
2023-05-23T22:58:18.441Z,16.00
2023-05-23T23:03:20.367Z,14.77
2023-05-23T23:08:22.485Z,14.30
2023-05-23T23:13:24.351Z,13.63
2023-05-23T23:18:27.043Z,14.00
2023-05-23T23:23:28.987Z,14.20
2023-05-23T23:28:30.837Z,13.33
2023-05-23T23:33:32.661Z,11.83
2023-05-23T23:38:34.439Z,12.13
2023-05-23T23:43:36.243Z,11.67
2023-05-23T23:48:38.028Z,12.17
2023-05-23T23:53:39.935Z,11.57
2023-05-23T23:58:41.799Z,11.00
